[Jeden Montag | 1730z - 2030z | EDDN] Nürnberg Monday

Zu Eventkalender hinzugefügt: 543 Daten

Jan Dylla

1378091
Einen herzlichen Dank an das ganze Team von EDDN - war ein Vergnügen heute bei Euch VFR unterwegs gewesen zu sein.
Und ganz besonderen Dank für das "Vorziehen" als Nr. 1 vor die RyanAir. Auch nett, wenn die Großen mal auf die Kleinen warten müssen. 😄
Die RYR hat sich ewig nicht bei mir gemeldet, selber Schuld sage ich da nur :-D Danke für das Fliegen heute, wieder einiges dazu gelernt :cool:
 

Michael Wellner

1024937
RG München - Event
Auch von mir herzlichen Dank. War das erste mal in EDDN, hat Spaß gemacht. Sorry an die Friesen, wenn ich mit der Beech das GAT etwas verstopft hatte. Nächstes mal stell ich mich raus. :)
Aber nicht doch. Es ist doch toll, wenn sich am GAT viele verschiedene Flugzeugtypen tummeln und ich freue mich immer, wenn ich mal andere Maschinen als immer nur C172, PA28 oder Mooney dort finde. Ich vermute mal, Du warst die Gravity, der ich mit meiner C182 zur Schwelle gefolgt bin? War ein echter Spaß...
 
Zuletzt bearbeitet:

Timo Funk

1413870
Ja, genau die...
Ich könnte mal ein paar Tutorials zum Approach und Landung gebrauchen, da habe ich mit der Proline 21 Avionik
und dem FMS am meisten zu kämpfen.
Der Rest hat gestern erstaunlich gut funktioniert (y)

Wobei ich mich auch noch an die meterlange Checkliste gewöhnen muss :cool:
 
Heute ist es wieder soweit mit Nürnberg!
Eine trockene Lücke zwischen den regnerischen Tagen bietet sich doch bestens an für einen oder mehrere VFR/IFR-Flüge nach Nürnberg?
Derzeit ist noch die Piste 10 zum Abfangen bereit, doch dass könnte sich auch im Laufe des Abends noch ändern...

Wir freuen uns! Bis Gleich!

2020/03/02 17:20
EDDN 021720Z 10007KT CAVOK 09/00 Q0989 NOSIG
2020/03/02 18:27
TAF EDDN 021700Z 0218/0318 VRB03KT 9999 SCT040
BECMG 0223/0301 26008KT PROB30
TEMPO 0303/0306 RA BKN012
BECMG 0304/0306 28013KT
TEMPO 0306/0313 28015G30KT
BECMG 0313/0315 27007KT
BECMG 0316/0318 23002KT
 
Langeweile daheim? Eingeschränkter Kontakt zu Menschen? Ausgehverbote und Schließungen?
Zum Glück ist heute Montag und die virtuelle Nürnberg-Crew erwartet Euch mit VFR und IFR Fliegern bei diesem grandiosem Wetter!!!

Wir beschäftigen euch definitiv. Bis Später!

TAF
2020/03/16 12:27
TAF EDDN 161100Z 1612/1712 24005KT CAVOK
BECMG 1619/1621 13004KT
BECMG 1706/1709 24006KT PROB30
TEMPO 1706/1712 BKN012
 

Michael Wellner

1024937
RG München - Event
Heute ist es wieder soweit - der erste Nuremberg-Monday nach der vielleicht letzten Zeitumstellung. Wir beginnen wie immer pünktlich um 1930lcl - also 1730z mit dem Service in Nürnberg (EDDN).
Das Wetter verspricht zumindest zur Zeit eine hervorragende Sicht und die heute Vormittag noch umlaufenden Winde von 7kt - in Böen bis 17kt - scheinen sich derzeit auf eine Pisten-Richtung und Windstärke geeinigt zu haben. Leider ist die Prognose, was Wolkenuntergrenze und Sichtweite angeht, für heute Abend eher nicht so gut und könnte so manchen VFR-Piloten an seine Grenzen bringen.

METAR:
EDDN 301020Z 07008KT 010V120 CAVOK 03/M11 Q1026 NOSIG

TAF:
TAF EDDN 300500Z 3006/3106 01007KT 9999 FEW035
BECMG 3017/3019 VRB02KT PROB30
TEMPO 3102/3104 4000 -SHSN BKN020TCU

Also plant Eure Routen, tankt Eure Maschinen und kommt nach Nürnberg. Egal ob IFR- oder VFR-Pilot, alter Hase oder Newbie, die Kontroller freuen sich bereits auf jede Menge Verkehr am Albrecht-Dürer-Airport.
--

_________________VATSim-Germany / RG München / Event-Department
 
Zuletzt bearbeitet:

Michael Wellner

1024937
RG München - Event
Und auch heute bieten euch unsere Kontroller beim Nuremberg-Monday wieder ab 1930lcl - also 1730z - besten Service in Nürnberg (EDDN).
Das Wetter verspricht wieder einen wolkenlosen Himmel bei frühlingshaften Temperaturen von 21 Grad und einer angenehmen Briese aus Westen, die gegen Abend jedoch auch nach Osten drehen könnte.

METAR:
EDDN 061350Z 25005KT 210V300 CAVOK 21/00 Q1023 NOSIG

TAF:
EDDN 061100Z 0612/0712 26005KT CAVOK BECMG 0616/0618 12003KT BECMG 0711/0712 06006KT

Also sorgt für gute Sicht aus dem Cockpit und kommt nach Nürnberg, um dieses schöne Wetter in der Luft zu genießen. Egal ob IFR- oder VFR-Pilot, alter Hase oder Newbie, die Kontroller freuen sich bereits auf jede Menge Verkehr am Albrecht-Dürer-Airport.
--

_________________VATSim-Germany / RG München / Event-Department
 
Zuletzt bearbeitet:

Pascal Klamm

1451860
RG München - Event

Auch am Ostermontag hat sich eine nette Gruppe gebildet, die für euch heute Abend den Albrecht Dürer Airport in Nürnberg besetzen wird. Das Wetter ist sehr wechselhaft, was IFR- und vor allem VFR-Flüge interessant machen könnte.

Außerdem ist es der letzte Nürnberg-Montag vor dem Tower-CPT von @Jan Dylla . Helft ihm dabei, sich gut auf seine bevorstehende Prüfung vorzubereiten.

Wie immer freuen wir uns schon auf euch!

TAF:
EDDN 131100Z 1312/1412 32010KT 9999 SCT040 PROB30
TEMPO 1312/1313 34015G30KT TSRA SCT020 BKN040CB PROB40
TEMPO 1313/1315 36015G25KT RA BKN014
BECMG 1319/1321 32005KT
 
Oben